createdAt,value
2023-01-22T00:01:41.029Z,103361.28
2023-01-22T00:04:09.414Z,103357.84
2023-01-22T00:06:37.130Z,103355.22
2023-01-22T00:09:05.062Z,103355.25
2023-01-22T00:11:32.774Z,103344.75
2023-01-22T00:14:01.901Z,103357.00
2023-01-22T00:16:29.726Z,103346.50
2023-01-22T00:18:57.404Z,103350.91
2023-01-22T00:21:25.330Z,103349.16
2023-01-22T00:23:53.257Z,103344.81
2023-01-22T00:26:21.138Z,103340.44
2023-01-22T00:28:48.848Z,103352.66
2023-01-22T00:31:18.023Z,103351.75
2023-01-22T00:33:45.935Z,103351.75
2023-01-22T00:36:15.049Z,103347.38
2023-01-22T00:38:42.750Z,103349.97
2023-01-22T00:41:10.706Z,103341.25
2023-01-22T00:43:39.458Z,103342.97
2023-01-22T00:46:07.417Z,103343.84
2023-01-22T00:48:36.488Z,103339.50
2023-01-22T00:51:04.271Z,103345.63
2023-01-22T00:53:31.979Z,103355.31
2023-01-22T00:56:01.670Z,103356.19
2023-01-22T00:58:29.495Z,103350.94
2023-01-22T01:00:57.264Z,103355.31
2023-01-22T01:03:27.964Z,103347.44
2023-01-22T01:05:57.155Z,103343.06
2023-01-22T01:08:25.245Z,103350.94
2023-01-22T01:10:55.088Z,103350.06
2023-01-22T01:13:22.787Z,103346.53
2023-01-22T01:15:50.555Z,103336.94
2023-01-22T01:18:18.255Z,103348.28
2023-01-22T01:20:46.256Z,103350.91
2023-01-22T01:23:15.306Z,103355.31
2023-01-22T01:25:43.227Z,103356.19
2023-01-22T01:28:10.895Z,103361.44
2023-01-22T01:30:38.563Z,103359.69
2023-01-22T01:33:06.254Z,103356.19
2023-01-22T01:35:33.947Z,103356.13
2023-01-22T01:38:01.626Z,103350.84
2023-01-22T01:40:30.646Z,103347.34
2023-01-22T01:42:58.318Z,103341.25
2023-01-22T01:45:28.182Z,103338.63
2023-01-22T01:47:59.199Z,103347.34
2023-01-22T01:50:27.157Z,103347.31
2023-01-22T01:52:54.954Z,103349.94
2023-01-22T01:55:28.666Z,103351.75
2023-01-22T01:57:59.682Z,103349.94
2023-01-22T02:00:28.132Z,103346.47
2023-01-22T02:02:56.073Z,103346.44
2023-01-22T02:05:23.750Z,103345.50
2023-01-22T02:07:51.405Z,103343.81
2023-01-22T02:10:19.341Z,103346.38
2023-01-22T02:12:47.130Z,103348.13
2023-01-22T02:15:16.187Z,103351.66
2023-01-22T02:17:44.456Z,103347.25
2023-01-22T02:20:13.005Z,103344.69
2023-01-22T02:22:42.049Z,103349.88
2023-01-22T02:25:10.317Z,103352.47
2023-01-22T02:27:38.686Z,103345.50
2023-01-22T02:30:07.441Z,103351.59
2023-01-22T02:32:35.149Z,103355.97
2023-01-22T02:35:03.058Z,103355.13
2023-01-22T02:37:31.208Z,103360.38
2023-01-22T02:40:00.235Z,103363.84
2023-01-22T02:42:28.126Z,103358.59
2023-01-22T02:44:55.858Z,103372.53
2023-01-22T02:47:23.519Z,103367.28
2023-01-22T02:49:51.190Z,103366.47
2023-01-22T02:52:19.072Z,103363.84
2023-01-22T02:54:46.734Z,103366.47
2023-01-22T02:57:15.759Z,103363.84
2023-01-22T02:59:43.426Z,103365.56
2023-01-22T03:02:11.161Z,103369.09
2023-01-22T03:04:39.177Z,103373.44
2023-01-22T03:07:06.854Z,103366.47
2023-01-22T03:09:34.518Z,103361.22
2023-01-22T03:12:02.195Z,103359.44
2023-01-22T03:14:48.877Z,103355.13
2023-01-22T03:17:34.198Z,103352.50
2023-01-22T03:20:19.823Z,103357.75
2023-01-22T03:22:47.586Z,103350.75
2023-01-22T03:25:15.441Z,103348.94
2023-01-22T03:28:03.090Z,103352.47
2023-01-22T03:30:32.350Z,103346.31
2023-01-22T03:33:00.016Z,103355.97
2023-01-22T03:35:27.671Z,103353.38
2023-01-22T03:37:55.343Z,103354.22
2023-01-22T03:40:23.020Z,103354.22
2023-01-22T03:42:50.777Z,103349.84
2023-01-22T03:45:18.436Z,103350.66
2023-01-22T03:47:47.484Z,103351.56
2023-01-22T03:50:15.512Z,103351.56
2023-01-22T03:52:43.306Z,103354.19
2023-01-22T03:55:11.430Z,103346.31
2023-01-22T03:57:39.098Z,103345.44
2023-01-22T04:00:08.313Z,103350.66
2023-01-22T04:02:37.785Z,103343.66
2023-01-22T04:05:08.062Z,103335.81
2023-01-22T04:07:35.775Z,103323.56
2023-01-22T04:10:03.444Z,103334.94
2023-01-22T04:12:31.108Z,103329.69
2023-01-22T04:14:58.778Z,103325.31
2023-01-22T04:17:26.875Z,103326.19
2023-01-22T04:19:54.623Z,103329.66
2023-01-22T04:22:23.765Z,103333.19
2023-01-22T04:24:51.447Z,103332.25
2023-01-22T04:27:19.108Z,103330.53
2023-01-22T04:29:46.801Z,103334.00
2023-01-22T04:32:14.466Z,103331.41
2023-01-22T04:34:42.125Z,103333.13
2023-01-22T04:37:09.781Z,103334.00
2023-01-22T04:39:38.801Z,103341.00
2023-01-22T04:42:06.577Z,103347.13
2023-01-22T04:44:34.246Z,103342.81
2023-01-22T04:47:01.919Z,103340.19
2023-01-22T04:49:29.588Z,103335.84
2023-01-22T04:51:57.350Z,103327.97
2023-01-22T04:54:25.019Z,103329.66
2023-01-22T04:56:54.145Z,103332.28
2023-01-22T04:59:21.871Z,103334.00
2023-01-22T05:01:50.881Z,103334.00
2023-01-22T05:04:18.557Z,103332.25
2023-01-22T05:06:46.234Z,103339.25
2023-01-22T05:09:13.946Z,103341.88
2023-01-22T05:11:41.847Z,103335.75
2023-01-22T05:14:10.897Z,103333.13
2023-01-22T05:16:38.651Z,103321.75
2023-01-22T05:19:06.382Z,103325.22
2023-01-22T05:21:34.139Z,103316.50
2023-01-22T05:24:01.935Z,103326.13
2023-01-22T05:26:29.597Z,103324.44
2023-01-22T05:28:57.273Z,103323.59
2023-01-22T05:31:26.424Z,103322.75
2023-01-22T05:33:54.114Z,103328.00
2023-01-22T05:36:22.043Z,103328.97
2023-01-22T05:38:49.710Z,103322.00
2023-01-22T05:41:17.379Z,103328.16
2023-01-22T05:43:45.041Z,103330.81
2023-01-22T05:46:12.793Z,103327.34
2023-01-22T05:48:41.841Z,103336.13
2023-01-22T05:51:09.674Z,103333.50
2023-01-22T05:53:37.486Z,103329.16
2023-01-22T05:56:05.962Z,103335.25
2023-01-22T05:58:33.758Z,103325.66
2023-01-22T06:01:01.443Z,103326.56
2023-01-22T06:03:29.123Z,103331.81
2023-01-22T06:06:01.850Z,103328.28
2023-01-22T06:08:29.745Z,103329.16
2023-01-22T06:11:01.466Z,103336.16
2023-01-22T06:13:29.603Z,103332.63
2023-01-22T06:15:57.275Z,103323.09
2023-01-22T06:18:25.342Z,103335.28
2023-01-22T06:20:53.105Z,103329.97
2023-01-22T06:23:22.818Z,103324.75
2023-01-22T06:25:53.192Z,103331.78
2023-01-22T06:28:20.924Z,103323.91
2023-01-22T06:30:48.691Z,103318.59
2023-01-22T06:33:16.438Z,103310.75
2023-01-22T06:35:44.090Z,103315.03
2023-01-22T06:38:11.793Z,103319.44
2023-01-22T06:40:40.802Z,103319.44
2023-01-22T06:43:10.756Z,103322.91
2023-01-22T06:45:39.303Z,103323.78
2023-01-22T06:48:07.335Z,103330.78
2023-01-22T06:50:34.993Z,103328.16
2023-01-22T06:53:02.685Z,103330.78
2023-01-22T06:55:30.361Z,103334.25
2023-01-22T06:57:59.389Z,103329.91
2023-01-22T07:00:27.091Z,103334.25
2023-01-22T07:02:54.784Z,103333.38
2023-01-22T07:05:23.220Z,103343.84
2023-01-22T07:07:54.081Z,103339.44
2023-01-22T07:10:21.838Z,103335.84
2023-01-22T07:12:49.605Z,103342.88
2023-01-22T07:15:18.831Z,103335.91
2023-01-22T07:17:51.688Z,103336.78
2023-01-22T07:20:19.908Z,103343.78
2023-01-22T07:22:47.751Z,103343.75
2023-01-22T07:25:15.495Z,103350.75
2023-01-22T07:27:43.156Z,103349.00
2023-01-22T07:30:11.974Z,103347.22
2023-01-22T07:32:41.015Z,103354.19
2023-01-22T07:35:09.030Z,103353.38
2023-01-22T07:37:37.313Z,103350.75
2023-01-22T07:40:06.001Z,103354.28
2023-01-22T07:42:33.670Z,103354.28
2023-01-22T07:45:01.354Z,103353.38
2023-01-22T07:47:29.062Z,103355.97
2023-01-22T07:49:58.329Z,103363.00
2023-01-22T07:52:26.036Z,103360.44
2023-01-22T07:54:53.703Z,103373.53
2023-01-22T07:57:21.374Z,103371.78
2023-01-22T07:59:49.064Z,103370.03
2023-01-22T08:02:16.813Z,103372.59
2023-01-22T08:04:44.764Z,103370.00
2023-01-22T08:07:17.619Z,103383.16
2023-01-22T08:09:45.333Z,103378.78
2023-01-22T08:12:13.413Z,103384.94
2023-01-22T08:14:41.068Z,103388.41
2023-01-22T08:17:08.762Z,103392.75
2023-01-22T08:19:36.442Z,103393.66
2023-01-22T08:22:04.311Z,103391.94
2023-01-22T08:24:34.332Z,103398.94
2023-01-22T08:27:02.056Z,103384.03
2023-01-22T08:29:30.010Z,103393.66
2023-01-22T08:31:57.855Z,103392.78
2023-01-22T08:34:25.679Z,103400.66
2023-01-22T08:36:53.341Z,103401.56
2023-01-22T08:39:21.011Z,103408.50
2023-01-22T08:41:52.144Z,103398.94
2023-01-22T08:44:19.829Z,103399.78
2023-01-22T08:46:47.523Z,103398.09
2023-01-22T08:49:15.193Z,103400.72
2023-01-22T08:51:42.854Z,103397.16
2023-01-22T08:54:10.922Z,103396.31
2023-01-22T08:56:38.662Z,103396.34
2023-01-22T08:59:07.686Z,103402.47
2023-01-22T09:01:35.397Z,103398.09
2023-01-22T09:04:03.319Z,103394.63
2023-01-22T09:06:31.002Z,103404.25
2023-01-22T09:08:59.290Z,103391.13
2023-01-22T09:11:26.964Z,103403.38
2023-01-22T09:13:56.160Z,103401.66
2023-01-22T09:16:25.555Z,103407.81
2023-01-22T09:18:53.390Z,103407.81
2023-01-22T09:21:21.075Z,103409.63
2023-01-22T09:23:48.769Z,103404.38
2023-01-22T09:26:16.480Z,103414.88
2023-01-22T09:28:44.133Z,103413.97
2023-01-22T09:31:13.514Z,103414.88
2023-01-22T09:33:42.537Z,103407.84
2023-01-22T09:36:11.401Z,103410.50
2023-01-22T09:38:39.273Z,103414.00
2023-01-22T09:41:08.922Z,103407.88
2023-01-22T09:43:38.251Z,103407.00
2023-01-22T09:46:07.201Z,103401.78
2023-01-22T09:48:36.592Z,103399.19
2023-01-22T09:51:06.282Z,103406.19
2023-01-22T09:53:34.025Z,103407.97
2023-01-22T09:56:01.679Z,103406.25
2023-01-22T09:58:29.361Z,103412.38
2023-01-22T10:01:00.366Z,103410.63
2023-01-22T10:03:31.354Z,103411.56
2023-01-22T10:06:00.321Z,103408.06
2023-01-22T10:08:32.271Z,103403.66
2023-01-22T10:11:00.994Z,103400.19
2023-01-22T10:13:29.290Z,103408.09
2023-01-22T10:15:57.209Z,103400.19
2023-01-22T10:18:35.959Z,103401.06
2023-01-22T10:21:05.898Z,103400.22
2023-01-22T10:23:35.543Z,103401.16
2023-01-22T10:26:08.396Z,103411.63
2023-01-22T10:28:36.057Z,103406.41
2023-01-22T10:31:03.765Z,103401.22
2023-01-22T10:33:31.617Z,103403.91
2023-01-22T10:35:59.326Z,103404.78
2023-01-22T10:38:28.421Z,103403.91
2023-01-22T10:40:58.843Z,103405.63
2023-01-22T10:43:34.140Z,103401.28
2023-01-22T10:46:05.967Z,103404.78
2023-01-22T10:48:34.263Z,103402.16
2023-01-22T10:51:04.369Z,103396.97
2023-01-22T10:53:33.786Z,103393.44
2023-01-22T10:56:04.133Z,103397.88
2023-01-22T10:58:33.233Z,103383.88
2023-01-22T11:01:02.893Z,103389.03
2023-01-22T11:03:33.169Z,103396.06
2023-01-22T11:06:02.458Z,103392.63
2023-01-22T11:08:41.318Z,103396.19
2023-01-22T11:11:11.191Z,103382.19
2023-01-22T11:13:44.615Z,103389.22
2023-01-22T11:16:16.247Z,103384.81
2023-01-22T11:18:44.734Z,103391.88
2023-01-22T11:21:15.418Z,103384.03
2023-01-22T11:23:46.884Z,103365.66
2023-01-22T11:26:18.176Z,103380.56
2023-01-22T11:28:48.951Z,103370.06
2023-01-22T11:31:40.886Z,103363.94
2023-01-22T11:34:25.872Z,103359.56
2023-01-22T11:36:56.907Z,103358.66
2023-01-22T11:39:34.302Z,103360.41
2023-01-22T11:42:05.641Z,103355.13
2023-01-22T11:44:53.704Z,103359.53
2023-01-22T11:47:36.021Z,103363.03
2023-01-22T11:50:16.724Z,103361.25
2023-01-22T11:52:49.544Z,103363.88
2023-01-22T11:55:43.803Z,103366.50
2023-01-22T11:58:16.459Z,103358.63
2023-01-22T12:00:46.262Z,103361.22
2023-01-22T12:03:23.679Z,103358.59
2023-01-22T12:05:55.803Z,103353.34
2023-01-22T12:08:33.429Z,103368.22
2023-01-22T12:11:17.183Z,103356.84
2023-01-22T12:14:11.986Z,103358.59
2023-01-22T12:16:44.735Z,103361.25
2023-01-22T12:19:40.525Z,103359.50
2023-01-22T12:22:10.430Z,103363.84
2023-01-22T12:24:40.565Z,103364.75
2023-01-22T12:27:12.453Z,103366.47
2023-01-22T12:29:42.667Z,103358.59
2023-01-22T12:32:12.053Z,103358.59
2023-01-22T12:34:43.011Z,103360.34
2023-01-22T12:37:12.280Z,103358.63
2023-01-22T12:39:41.980Z,103351.66
2023-01-22T12:42:16.482Z,103362.16
2023-01-22T12:44:51.751Z,103358.63
2023-01-22T12:47:21.064Z,103351.66
2023-01-22T12:49:50.055Z,103354.31
2023-01-22T12:52:34.774Z,103352.56
2023-01-22T12:55:03.613Z,103353.41
2023-01-22T12:57:38.960Z,103349.03
2023-01-22T13:00:24.621Z,103349.06
2023-01-22T13:02:52.365Z,103357.78
2023-01-22T13:05:23.216Z,103354.31
2023-01-22T13:07:52.181Z,103347.31
2023-01-22T13:10:26.002Z,103348.13
2023-01-22T13:12:54.576Z,103349.94
2023-01-22T13:15:25.084Z,103339.41
2023-01-22T13:18:06.325Z,103345.50
2023-01-22T13:20:36.083Z,103350.75
2023-01-22T13:23:03.817Z,103353.34
2023-01-22T13:25:33.230Z,103346.31
2023-01-22T13:28:01.583Z,103354.19
2023-01-22T13:30:31.822Z,103351.56
2023-01-22T13:33:14.014Z,103351.50
2023-01-22T13:35:42.618Z,103359.34
2023-01-22T13:38:18.644Z,103355.84
2023-01-22T13:40:51.334Z,103361.09
2023-01-22T13:43:19.752Z,103356.69
2023-01-22T13:45:48.765Z,103362.81
2023-01-22T13:48:18.226Z,103361.97
2023-01-22T13:50:47.509Z,103362.03
2023-01-22T13:53:23.433Z,103364.66
2023-01-22T13:55:51.118Z,103354.19
2023-01-22T13:58:46.706Z,103368.22
2023-01-22T14:01:29.694Z,103359.50
2023-01-22T14:03:59.788Z,103358.63
2023-01-22T14:06:27.484Z,103365.63
2023-01-22T14:08:56.628Z,103358.63
2023-01-22T14:11:24.455Z,103358.66
2023-01-22T14:13:52.997Z,103357.78
2023-01-22T14:16:23.237Z,103365.66
2023-01-22T14:18:50.947Z,103368.28
2023-01-22T14:21:18.622Z,103363.97
2023-01-22T14:23:46.513Z,103368.34
2023-01-22T14:26:14.260Z,103371.00
2023-01-22T14:28:41.960Z,103368.41
2023-01-22T14:31:09.699Z,103377.16
2023-01-22T14:33:38.784Z,103387.66
2023-01-22T14:36:07.484Z,103387.66
2023-01-22T14:38:35.233Z,103392.00
2023-01-22T14:41:04.451Z,103396.38
2023-01-22T14:43:32.184Z,103395.50
2023-01-22T14:46:00.186Z,103396.34
2023-01-22T14:48:27.985Z,103398.97
2023-01-22T14:50:57.746Z,103405.97
2023-01-22T14:53:25.581Z,103398.94
2023-01-22T14:55:53.285Z,103400.72
2023-01-22T14:58:21.022Z,103398.13
2023-01-22T15:00:49.109Z,103400.75
2023-01-22T15:03:16.847Z,103393.78
2023-01-22T15:05:45.153Z,103396.38
2023-01-22T15:08:14.193Z,103390.25
2023-01-22T15:10:41.951Z,103401.63
2023-01-22T15:13:09.950Z,103399.00
2023-01-22T15:15:37.738Z,103393.75
2023-01-22T15:18:05.501Z,103400.75
2023-01-22T15:20:33.258Z,103408.63
2023-01-22T15:23:01.153Z,103403.34
2023-01-22T15:25:32.140Z,103413.84
2023-01-22T15:27:59.879Z,103411.22
2023-01-22T15:30:27.631Z,103418.19
2023-01-22T15:32:55.591Z,103419.91
2023-01-22T15:35:23.319Z,103421.66
2023-01-22T15:37:51.047Z,103420.78
2023-01-22T15:40:19.275Z,103423.41
2023-01-22T15:42:48.521Z,103420.78
2023-01-22T15:45:16.392Z,103421.69
2023-01-22T15:47:44.112Z,103426.03
2023-01-22T15:50:19.965Z,103428.66
2023-01-22T15:52:47.836Z,103429.50
2023-01-22T15:55:15.730Z,103427.78
2023-01-22T15:57:43.420Z,103434.75
2023-01-22T16:00:14.989Z,103436.50
2023-01-22T16:02:43.357Z,103426.88
2023-01-22T16:05:11.170Z,103435.66
2023-01-22T16:07:38.874Z,103435.66
2023-01-22T16:10:07.129Z,103433.00
2023-01-22T16:12:34.840Z,103439.09
2023-01-22T16:15:02.596Z,103437.41
2023-01-22T16:17:31.663Z,103440.00
2023-01-22T16:19:59.382Z,103444.38
2023-01-22T16:22:27.703Z,103447.91
2023-01-22T16:24:55.404Z,103447.03
2023-01-22T16:27:23.086Z,103454.03
2023-01-22T16:29:50.869Z,103453.13
2023-01-22T16:32:18.557Z,103458.38
2023-01-22T16:34:50.306Z,103454.84
2023-01-22T16:37:18.000Z,103455.75
2023-01-22T16:39:45.691Z,103457.47
2023-01-22T16:42:13.393Z,103454.84
2023-01-22T16:44:41.083Z,103453.97
2023-01-22T16:47:08.798Z,103457.47
2023-01-22T16:49:36.473Z,103448.75
2023-01-22T16:52:21.296Z,103455.75
2023-01-22T16:54:49.568Z,103458.34
2023-01-22T16:57:18.054Z,103469.72
2023-01-22T16:59:45.740Z,103470.59
2023-01-22T17:02:14.384Z,103463.50
2023-01-22T17:04:42.129Z,103465.28
2023-01-22T17:07:27.294Z,103462.69
2023-01-22T17:09:59.679Z,103464.44
2023-01-22T17:12:27.474Z,103467.97
2023-01-22T17:14:55.296Z,103461.84
2023-01-22T17:17:22.975Z,103459.22
2023-01-22T17:19:50.696Z,103465.31
2023-01-22T17:22:20.216Z,103475.78
2023-01-22T17:24:47.986Z,103477.56
2023-01-22T17:27:18.398Z,103474.94
2023-01-22T17:29:46.180Z,103478.47
2023-01-22T17:32:13.895Z,103475.84
2023-01-22T17:34:42.072Z,103481.03
2023-01-22T17:37:11.162Z,103482.84
2023-01-22T17:39:40.836Z,103479.31
2023-01-22T17:42:08.541Z,103480.22
2023-01-22T17:44:36.270Z,103485.47
2023-01-22T17:47:05.705Z,103482.84
2023-01-22T17:49:34.928Z,103488.94
2023-01-22T17:52:02.737Z,103484.53
2023-01-22T17:54:30.469Z,103491.53
2023-01-22T17:56:59.645Z,103491.53
2023-01-22T17:59:27.415Z,103492.41
2023-01-22T18:01:55.146Z,103499.41
2023-01-22T18:04:22.921Z,103495.88
2023-01-22T18:06:50.764Z,103502.88
2023-01-22T18:09:18.503Z,103501.13
2023-01-22T18:11:46.190Z,103500.22
2023-01-22T18:14:18.379Z,103495.88
2023-01-22T18:16:46.588Z,103502.88
2023-01-22T18:19:14.273Z,103498.50
2023-01-22T18:21:42.110Z,103498.50
2023-01-22T18:24:10.137Z,103496.78
2023-01-22T18:26:37.845Z,103501.13
2023-01-22T18:29:05.775Z,103512.53
2023-01-22T18:31:35.147Z,103509.91
2023-01-22T18:34:03.817Z,103505.50
2023-01-22T18:36:32.443Z,103515.13
2023-01-22T18:39:00.447Z,103515.97
2023-01-22T18:41:28.215Z,103513.38
2023-01-22T18:43:57.137Z,103516.91
2023-01-22T18:46:25.672Z,103523.91
2023-01-22T18:48:55.505Z,103514.28
2023-01-22T18:51:23.600Z,103517.75
2023-01-22T18:53:51.410Z,103510.72
2023-01-22T18:56:19.149Z,103521.22
2023-01-22T18:58:48.156Z,103522.97
2023-01-22T19:01:17.095Z,103528.22
2023-01-22T19:03:45.501Z,103524.72
2023-01-22T19:06:17.138Z,103525.59
2023-01-22T19:08:46.229Z,103523.84
2023-01-22T19:11:14.630Z,103526.47
2023-01-22T19:13:42.754Z,103530.84
2023-01-22T19:16:11.834Z,103536.09
2023-01-22T19:18:40.057Z,103537.84
2023-01-22T19:21:09.113Z,103536.94
2023-01-22T19:23:38.207Z,103543.09
2023-01-22T19:26:07.627Z,103539.63
2023-01-22T19:28:35.412Z,103544.84
2023-01-22T19:31:03.197Z,103538.75
2023-01-22T19:33:30.972Z,103554.50
2023-01-22T19:35:58.686Z,103558.84
2023-01-22T19:38:26.493Z,103557.06
2023-01-22T19:40:55.911Z,103562.34
2023-01-22T19:43:23.798Z,103570.19
2023-01-22T19:45:51.507Z,103568.44
2023-01-22T19:48:21.173Z,103564.94
2023-01-22T19:50:48.853Z,103579.81
2023-01-22T19:53:16.582Z,103574.56
2023-01-22T19:55:44.278Z,103572.81
2023-01-22T19:58:13.343Z,103576.28
2023-01-22T20:00:41.155Z,103576.28
2023-01-22T20:03:09.311Z,103570.19
2023-01-22T20:05:40.849Z,103569.34
2023-01-22T20:08:08.549Z,103581.59
2023-01-22T20:10:37.497Z,103570.19
2023-01-22T20:13:05.162Z,103579.81
2023-01-22T20:15:37.467Z,103574.53
2023-01-22T20:18:05.963Z,103587.69
2023-01-22T20:20:33.700Z,103577.19
2023-01-22T20:23:01.487Z,103588.59
2023-01-22T20:25:30.904Z,103590.34
2023-01-22T20:27:58.675Z,103591.19
2023-01-22T20:30:26.419Z,103592.03
2023-01-22T20:32:56.651Z,103592.03
2023-01-22T20:35:24.433Z,103604.28
2023-01-22T20:37:52.296Z,103600.75
2023-01-22T20:40:20.055Z,103601.66
2023-01-22T20:42:48.642Z,103604.28
2023-01-22T20:45:16.526Z,103604.28
2023-01-22T20:47:44.949Z,103594.66
2023-01-22T20:50:14.238Z,103599.88
2023-01-22T20:52:41.960Z,103601.63
2023-01-22T20:55:13.470Z,103595.53
2023-01-22T20:57:41.183Z,103602.56
2023-01-22T21:00:10.012Z,103597.28
2023-01-22T21:02:37.718Z,103602.53
2023-01-22T21:05:05.982Z,103599.03
2023-01-22T21:07:35.026Z,103604.28
2023-01-22T21:10:02.793Z,103605.16
2023-01-22T21:12:30.530Z,103607.69
2023-01-22T21:14:58.303Z,103598.03
2023-01-22T21:17:26.141Z,103598.84
2023-01-22T21:19:55.188Z,103598.84
2023-01-22T21:22:22.891Z,103591.81
2023-01-22T21:24:51.947Z,103600.50
2023-01-22T21:27:19.651Z,103596.97
2023-01-22T21:29:47.334Z,103596.06
2023-01-22T21:32:15.258Z,103602.22
2023-01-22T21:34:42.984Z,103607.47
2023-01-22T21:37:10.689Z,103606.50
2023-01-22T21:39:44.859Z,103609.09
2023-01-22T21:42:31.345Z,103614.34
2023-01-22T21:45:25.032Z,103611.75
2023-01-22T21:47:52.782Z,103617.88
2023-01-22T21:50:20.881Z,103619.72
2023-01-22T21:52:49.128Z,103617.13
2023-01-22T21:55:17.036Z,103619.84
2023-01-22T21:57:46.062Z,103625.94
2023-01-22T22:00:16.824Z,103634.81
2023-01-22T22:02:45.115Z,103627.06
2023-01-22T22:05:12.875Z,103633.31
2023-01-22T22:07:40.579Z,103629.94
2023-01-22T22:10:11.724Z,103624.72
2023-01-22T22:12:39.527Z,103618.69
2023-01-22T22:15:11.503Z,103621.34
2023-01-22T22:17:39.348Z,103623.97
2023-01-22T22:20:07.901Z,103614.38
2023-01-22T22:22:35.589Z,103616.06
2023-01-22T22:25:03.248Z,103610.91
2023-01-22T22:27:30.905Z,103606.59
2023-01-22T22:29:58.579Z,103604.91
2023-01-22T22:32:27.709Z,103607.50
2023-01-22T22:34:55.372Z,103603.13
2023-01-22T22:37:23.048Z,103606.63
2023-01-22T22:39:50.713Z,103609.25
2023-01-22T22:42:18.414Z,103610.97
2023-01-22T22:44:46.279Z,103615.31
2023-01-22T22:47:13.946Z,103627.59
2023-01-22T22:49:43.113Z,103622.25
2023-01-22T22:52:10.825Z,103624.88
2023-01-22T22:54:38.554Z,103630.09
2023-01-22T22:57:06.213Z,103636.25
2023-01-22T22:59:33.873Z,103637.06
2023-01-22T23:02:01.561Z,103638.88
2023-01-22T23:04:29.320Z,103640.59
2023-01-22T23:06:58.399Z,103645.78
2023-01-22T23:09:26.066Z,103647.53
2023-01-22T23:11:55.965Z,103648.38
2023-01-22T23:14:23.760Z,103660.63
2023-01-22T23:16:51.464Z,103662.34
2023-01-22T23:19:20.403Z,103658.88
2023-01-22T23:21:50.104Z,103658.88
2023-01-22T23:24:19.122Z,103665.88
2023-01-22T23:26:46.928Z,103658.88
2023-01-22T23:29:15.608Z,103655.31
2023-01-22T23:31:43.433Z,103657.94
2023-01-22T23:34:12.829Z,103660.56
2023-01-22T23:36:40.889Z,103650.94
2023-01-22T23:39:08.578Z,103656.16
2023-01-22T23:41:37.597Z,103664.13
2023-01-22T23:44:05.584Z,103666.75
2023-01-22T23:46:34.940Z,103672.84
2023-01-22T23:49:02.962Z,103667.56
2023-01-22T23:51:31.062Z,103665.81
2023-01-22T23:53:58.880Z,103662.41
2023-01-22T23:56:27.521Z,103655.38
2023-01-22T23:58:56.810Z,103665.88
